Pine Valley, California
Current Conditions -  °F | °C
As of 2:53 AM on Thursday 18 Dec 2014 (Local Time) from KRNM Reporting Station
Haze Haze  
Wind Chill: 46°   Ceiling: 5500
Heat Index: 46°   Visibility: 5mi
Dew Point: 44°   Wind: 3mph
Humidity: 93%   Direction: 100°E
Pressure: 30.13"   Gusts: NA
Location:  32.86°N, 116.5°W
Report Text: KRNM 181053Z AUTO 10003KT 5SM BR FEW031 SCT047 OVC055 08/07 A3013 RMK AO2 SLP199 T00780067
Loading
Personal Weather Stations






























Interactive Weather Map New forecast layout! Learn more

10-Day Weather Forecast

Advertisements
Track Severe Weather on mobile